createdAt,value
2018-07-12T00:01:19.494Z,13.27
2018-07-12T00:03:45.743Z,13.28
2018-07-12T00:06:11.975Z,13.26
2018-07-12T00:08:38.227Z,13.25
2018-07-12T00:11:04.470Z,13.22
2018-07-12T00:13:30.730Z,13.25
2018-07-12T00:15:57.671Z,13.29
2018-07-12T00:21:14.067Z,13.36
2018-07-12T00:23:40.327Z,13.40
2018-07-12T00:26:06.590Z,13.47
2018-07-12T00:28:32.860Z,13.51
2018-07-12T00:30:59.103Z,13.57
2018-07-12T00:33:25.341Z,13.60
2018-07-12T00:35:51.612Z,13.51
2018-07-12T00:38:17.855Z,13.45
2018-07-12T00:40:44.107Z,13.43
2018-07-12T00:43:10.366Z,13.41
2018-07-12T00:45:36.624Z,13.38
2018-07-12T00:48:03.132Z,13.33
2018-07-12T00:50:29.419Z,13.27
2018-07-12T00:52:55.654Z,13.30
2018-07-12T00:55:21.927Z,13.30
2018-07-12T00:57:48.174Z,13.32
2018-07-12T01:00:14.426Z,13.33
2018-07-12T01:02:40.661Z,13.33
2018-07-12T01:05:06.913Z,13.31
2018-07-12T01:07:33.154Z,13.25
2018-07-12T01:09:59.444Z,13.22
2018-07-12T01:12:25.671Z,13.15
2018-07-12T01:14:51.939Z,13.11
2018-07-12T01:17:18.178Z,13.14
2018-07-12T01:19:44.422Z,13.15
2018-07-12T01:22:10.667Z,13.12
2018-07-12T01:24:36.908Z,13.10
2018-07-12T01:27:03.315Z,13.08
2018-07-12T01:29:29.566Z,13.11
2018-07-12T01:31:55.787Z,13.15
2018-07-12T01:34:22.045Z,13.20
2018-07-12T01:36:48.273Z,13.21
2018-07-12T01:39:14.518Z,13.17
2018-07-12T01:41:40.773Z,13.19
2018-07-12T01:44:07.139Z,13.16
2018-07-12T01:46:33.373Z,13.08
2018-07-12T01:48:59.609Z,13.03
2018-07-12T01:51:25.870Z,12.94
2018-07-12T01:53:52.094Z,12.90
2018-07-12T01:56:18.350Z,12.88
2018-07-12T01:58:44.574Z,12.83
2018-07-12T02:01:10.832Z,12.79
2018-07-12T02:03:37.074Z,12.77
2018-07-12T02:06:03.339Z,12.73
2018-07-12T02:08:29.578Z,12.67
2018-07-12T02:10:55.842Z,12.69
2018-07-12T02:13:22.058Z,12.70
2018-07-12T02:15:48.315Z,12.74
2018-07-12T02:18:14.555Z,12.78
2018-07-12T02:20:40.810Z,12.72
2018-07-12T02:23:07.036Z,12.67
2018-07-12T02:25:33.279Z,12.56
2018-07-12T02:27:59.503Z,12.52
2018-07-12T02:30:25.766Z,12.40
2018-07-12T02:32:52.002Z,12.33
2018-07-12T02:35:18.264Z,12.32
2018-07-12T02:37:44.486Z,12.31
2018-07-12T02:40:10.740Z,12.24
2018-07-12T02:42:36.983Z,12.22
2018-07-12T02:45:03.255Z,12.22
2018-07-12T02:47:29.491Z,12.28
2018-07-12T02:49:55.779Z,12.28
2018-07-12T02:52:22.051Z,12.23
2018-07-12T02:54:48.337Z,12.15
2018-07-12T02:57:14.607Z,12.05
2018-07-12T02:59:40.854Z,11.97
2018-07-12T03:02:07.124Z,11.96
2018-07-12T03:04:33.385Z,11.96
2018-07-12T03:06:59.695Z,11.89
2018-07-12T03:09:26.010Z,11.86
2018-07-12T03:11:52.622Z,11.81
2018-07-12T03:14:18.919Z,11.75
2018-07-12T03:16:45.239Z,11.81
2018-07-12T03:19:12.334Z,11.86
2018-07-12T03:21:39.653Z,11.92
2018-07-12T03:24:06.513Z,12.02
2018-07-12T03:26:32.822Z,12.11
2018-07-12T03:28:59.146Z,12.18
2018-07-12T03:31:25.468Z,12.30
2018-07-12T03:33:51.747Z,12.43
2018-07-12T03:36:18.094Z,12.57
2018-07-12T03:38:44.378Z,12.69
2018-07-12T03:41:10.724Z,12.82
2018-07-12T03:43:37.118Z,12.94
2018-07-12T03:46:03.434Z,13.02
2018-07-12T03:48:29.774Z,13.14
2018-07-12T03:50:56.119Z,13.20
2018-07-12T03:53:22.463Z,13.23
2018-07-12T03:55:49.417Z,13.26
2018-07-12T03:58:15.727Z,13.27
2018-07-12T04:00:42.582Z,13.30
2018-07-12T04:03:09.457Z,13.34
2018-07-12T04:05:35.783Z,13.30
2018-07-12T04:08:02.100Z,13.37
2018-07-12T04:10:28.442Z,13.38
2018-07-12T04:12:54.720Z,13.41
2018-07-12T04:15:21.140Z,13.41
2018-07-12T04:17:47.442Z,13.42
2018-07-12T04:20:13.736Z,13.40
2018-07-12T04:22:39.994Z,13.40
2018-07-12T04:25:06.285Z,13.44
2018-07-12T04:27:32.591Z,13.50
2018-07-12T04:29:59.765Z,13.52
2018-07-12T04:32:26.085Z,13.56
2018-07-12T04:34:52.850Z,13.58
2018-07-12T04:37:19.347Z,13.63
2018-07-12T04:39:45.921Z,13.68
2018-07-12T04:42:12.234Z,13.69
2018-07-12T04:44:38.493Z,13.75
2018-07-12T04:47:04.803Z,13.79
2018-07-12T04:49:31.104Z,13.84
2018-07-12T04:51:58.269Z,13.91
2018-07-12T04:54:24.846Z,13.95
2018-07-12T04:56:51.578Z,14.00
2018-07-12T04:59:18.768Z,14.10
2018-07-12T05:01:45.492Z,14.19
2018-07-12T05:04:11.787Z,14.27
2018-07-12T05:06:39.045Z,14.29
2018-07-12T05:09:06.570Z,14.30
2018-07-12T05:11:32.920Z,14.20
2018-07-12T05:13:59.236Z,14.13
2018-07-12T05:16:25.525Z,14.17
2018-07-12T05:18:51.843Z,14.23
2018-07-12T05:21:18.140Z,14.29
2018-07-12T05:23:44.561Z,14.28
2018-07-12T05:26:10.871Z,14.31
2018-07-12T05:28:37.163Z,14.23
2018-07-12T05:31:03.502Z,14.20
2018-07-12T05:33:29.809Z,14.18
2018-07-12T05:35:57.238Z,14.20
2018-07-12T05:38:24.534Z,14.22
2018-07-12T05:40:51.898Z,14.27
2018-07-12T05:43:19.306Z,14.33
2018-07-12T05:45:46.655Z,14.46
2018-07-12T05:48:14.210Z,14.55
2018-07-12T05:50:45.507Z,14.59
2018-07-12T05:53:12.882Z,14.72
2018-07-12T05:55:40.205Z,14.81
2018-07-12T05:58:07.590Z,14.94
2018-07-12T06:00:34.935Z,15.05
2018-07-12T06:03:02.328Z,15.19
2018-07-12T06:05:29.730Z,15.33
2018-07-12T06:07:57.090Z,15.61
2018-07-12T06:10:24.595Z,15.77
2018-07-12T06:12:51.940Z,15.88
2018-07-12T06:15:26.067Z,15.91
2018-07-12T06:17:53.403Z,15.94
2018-07-12T06:20:20.727Z,15.97
2018-07-12T06:22:48.082Z,16.04
2018-07-12T06:25:15.418Z,16.10
2018-07-12T06:27:42.783Z,16.05
2018-07-12T06:30:10.105Z,16.14
2018-07-12T06:32:38.098Z,16.17
2018-07-12T06:35:05.422Z,16.18
2018-07-12T06:37:32.806Z,16.21
2018-07-12T06:40:00.144Z,16.20
2018-07-12T06:42:27.492Z,16.32
2018-07-12T06:44:54.809Z,16.49
2018-07-12T06:47:22.736Z,16.48
2018-07-12T06:49:50.895Z,16.62
2018-07-12T06:52:18.265Z,17.04
2018-07-12T06:54:45.865Z,17.48
2018-07-12T06:57:13.927Z,17.66
2018-07-12T06:59:41.262Z,17.38
2018-07-12T07:02:09.254Z,17.33
2018-07-12T07:04:36.575Z,17.72
2018-07-12T07:07:04.033Z,17.83
2018-07-12T07:09:31.345Z,17.84
2018-07-12T07:11:58.729Z,17.80
2018-07-12T07:14:26.145Z,17.62
2018-07-12T07:16:53.521Z,17.52
2018-07-12T07:19:20.861Z,17.58
2018-07-12T07:21:48.226Z,18.42
2018-07-12T07:24:15.604Z,18.63
2018-07-12T07:26:42.898Z,18.67
2018-07-12T07:29:10.256Z,19.17
2018-07-12T07:31:37.631Z,19.59
2018-07-12T07:34:05.083Z,20.12
2018-07-12T07:36:32.395Z,20.61
2018-07-12T07:38:59.707Z,20.64
2018-07-12T07:41:27.038Z,21.01
2018-07-12T07:43:54.471Z,21.86
2018-07-12T07:46:22.186Z,22.19
2018-07-12T07:48:49.545Z,22.21
2018-07-12T07:51:17.556Z,21.92
2018-07-12T07:53:44.935Z,21.40
2018-07-12T07:56:13.287Z,20.96
2018-07-12T07:58:41.265Z,20.70
2018-07-12T08:01:08.631Z,20.39
2018-07-12T08:03:36.005Z,20.51
2018-07-12T08:06:03.347Z,20.13
2018-07-12T08:08:31.670Z,19.96
2018-07-12T08:10:59.044Z,20.15
2018-07-12T08:13:26.418Z,20.30
2018-07-12T08:15:53.708Z,20.29
2018-07-12T08:18:21.080Z,20.19
2018-07-12T08:20:48.439Z,20.00
2018-07-12T08:23:15.841Z,19.71
2018-07-12T08:25:43.185Z,19.51
2018-07-12T08:28:23.546Z,19.23
2018-07-12T08:30:51.068Z,19.06
2018-07-12T08:33:18.540Z,18.97
2018-07-12T08:35:45.850Z,19.00
2018-07-12T08:38:13.329Z,19.03
2018-07-12T08:40:40.741Z,18.93
2018-07-12T08:43:08.044Z,18.82
2018-07-12T08:45:35.381Z,18.68
2018-07-12T08:48:02.737Z,18.70
2018-07-12T08:50:30.185Z,18.69
2018-07-12T08:52:57.661Z,18.91
2018-07-12T08:55:25.632Z,19.07
2018-07-12T08:57:52.952Z,19.22
2018-07-12T09:00:20.344Z,19.21
2018-07-12T09:02:47.790Z,19.43
2018-07-12T09:05:15.167Z,19.55
2018-07-12T09:07:43.412Z,19.67
2018-07-12T09:10:10.767Z,19.90
2018-07-12T09:12:38.110Z,19.93
2018-07-12T09:15:05.526Z,19.87
2018-07-12T09:17:32.912Z,19.50
2018-07-12T09:20:00.287Z,19.35
2018-07-12T09:22:27.665Z,19.23
2018-07-12T09:24:54.994Z,19.37
2018-07-12T09:27:22.321Z,19.50
2018-07-12T09:29:49.734Z,19.64
2018-07-12T09:32:17.141Z,19.75
2018-07-12T09:34:44.551Z,19.64
2018-07-12T09:37:11.846Z,19.75
2018-07-12T09:39:39.874Z,19.86
2018-07-12T09:42:07.518Z,20.14
2018-07-12T09:44:34.875Z,20.33
2018-07-12T09:47:02.262Z,20.52
2018-07-12T09:49:29.675Z,20.81
2018-07-12T09:51:57.038Z,21.00
2018-07-12T09:54:24.428Z,21.12
2018-07-12T09:57:03.142Z,21.11
2018-07-12T09:59:31.085Z,21.23
2018-07-12T10:02:03.999Z,21.30
2018-07-12T10:04:31.333Z,21.37
2018-07-12T10:07:04.273Z,21.38
2018-07-12T10:09:37.442Z,21.49
2018-07-12T10:12:08.980Z,21.18
2018-07-12T10:14:41.860Z,21.26
2018-07-12T10:17:16.810Z,21.29
2018-07-12T10:19:44.223Z,21.23
2018-07-12T10:22:11.875Z,21.36
2018-07-12T10:24:39.313Z,21.62
2018-07-12T10:27:06.727Z,21.90
2018-07-12T10:29:34.061Z,22.41
2018-07-12T10:32:01.948Z,23.08
2018-07-12T10:34:29.352Z,23.44
2018-07-12T10:36:56.695Z,24.06
2018-07-12T10:39:24.083Z,23.79
2018-07-12T10:41:51.493Z,23.34
2018-07-12T10:44:18.879Z,23.29
2018-07-12T10:46:46.222Z,23.22
2018-07-12T10:49:13.507Z,22.81
2018-07-12T10:51:40.871Z,22.56
2018-07-12T10:54:08.248Z,22.60
2018-07-12T10:56:35.610Z,22.42
2018-07-12T10:59:03.124Z,22.94
2018-07-12T11:01:30.963Z,23.19
2018-07-12T11:03:58.249Z,23.05
2018-07-12T11:06:26.076Z,23.44
2018-07-12T11:08:54.190Z,23.55
2018-07-12T11:11:21.566Z,23.54
2018-07-12T11:13:51.638Z,23.45
2018-07-12T11:16:19.196Z,22.95
2018-07-12T11:18:46.530Z,22.73
2018-07-12T11:21:14.185Z,22.71
2018-07-12T11:23:48.262Z,22.82
2018-07-12T11:26:16.206Z,23.05
2018-07-12T11:28:43.594Z,23.46
2018-07-12T11:31:10.991Z,24.26
2018-07-12T11:33:41.713Z,24.53
2018-07-12T11:36:10.082Z,23.99
2018-07-12T11:38:38.463Z,23.54
2018-07-12T11:41:06.399Z,23.09
2018-07-12T11:43:33.852Z,22.87
2018-07-12T11:46:03.244Z,23.07
2018-07-12T11:48:31.064Z,23.48
2018-07-12T11:50:58.546Z,23.47
2018-07-12T11:53:26.590Z,23.24
2018-07-12T11:55:54.021Z,22.93
2018-07-12T11:58:22.039Z,22.69
2018-07-12T12:00:50.481Z,22.59
2018-07-12T12:03:17.988Z,22.40
2018-07-12T12:05:45.330Z,22.25
2018-07-12T12:08:13.209Z,22.02
2018-07-12T12:10:40.681Z,21.95
2018-07-12T12:13:08.043Z,21.81
2018-07-12T12:15:35.430Z,21.97
2018-07-12T12:18:02.774Z,22.14
2018-07-12T12:20:30.774Z,22.22
2018-07-12T12:22:58.118Z,22.25
2018-07-12T12:25:26.206Z,21.88
2018-07-12T12:27:53.842Z,21.85
2018-07-12T12:30:21.476Z,21.80
2018-07-12T12:32:49.497Z,21.87
2018-07-12T12:35:16.904Z,21.93
2018-07-12T12:37:44.393Z,22.10
2018-07-12T12:40:11.827Z,22.17
2018-07-12T12:42:39.206Z,22.32
2018-07-12T12:45:06.697Z,22.40
2018-07-12T12:47:34.310Z,22.35
2018-07-12T12:50:01.732Z,22.40
2018-07-12T12:52:29.094Z,23.15
2018-07-12T12:54:57.124Z,24.08
2018-07-12T12:57:24.530Z,24.87
2018-07-12T12:59:51.883Z,25.79
2018-07-12T13:02:19.276Z,25.76
2018-07-12T13:04:46.771Z,25.27
2018-07-12T13:07:14.138Z,25.56
2018-07-12T13:09:41.676Z,25.98
2018-07-12T13:12:11.397Z,26.29
2018-07-12T13:14:38.694Z,26.62
2018-07-12T13:17:06.411Z,26.86
2018-07-12T13:19:33.711Z,26.47
2018-07-12T13:22:01.292Z,25.90
2018-07-12T13:24:29.294Z,25.41
2018-07-12T13:26:56.844Z,24.94
2018-07-12T13:29:24.315Z,24.56
2018-07-12T13:31:52.304Z,24.44
2018-07-12T13:34:19.498Z,24.53
2018-07-12T13:36:46.852Z,24.36
2018-07-12T13:39:14.177Z,24.17
2018-07-12T13:41:41.618Z,24.08
2018-07-12T13:44:16.406Z,24.05
2018-07-12T13:46:43.893Z,23.95
2018-07-12T13:49:11.254Z,23.33
2018-07-12T13:51:38.668Z,22.77
2018-07-12T13:54:06.519Z,22.56
2018-07-12T13:56:33.910Z,22.44
2018-07-12T13:59:01.268Z,22.55
2018-07-12T14:01:28.602Z,22.62
2018-07-12T14:03:55.931Z,22.62
2018-07-12T14:06:23.511Z,22.78
2018-07-12T14:08:50.842Z,22.79
2018-07-12T14:11:18.376Z,22.87
2018-07-12T14:13:46.504Z,22.99
2018-07-12T14:16:13.827Z,23.04
2018-07-12T14:18:41.426Z,23.43
2018-07-12T14:21:09.532Z,23.42
2018-07-12T14:23:37.569Z,23.46
2018-07-12T14:26:04.907Z,23.52
2018-07-12T14:28:32.461Z,23.39
2018-07-12T14:30:59.867Z,23.61
2018-07-12T14:33:27.298Z,23.68
2018-07-12T14:35:54.765Z,23.92
2018-07-12T14:38:22.154Z,24.06
2018-07-12T14:40:50.126Z,23.95
2018-07-12T14:43:18.071Z,24.25
2018-07-12T14:45:45.426Z,24.47
2018-07-12T14:48:12.849Z,24.71
2018-07-12T14:50:40.168Z,24.71
2018-07-12T14:53:08.174Z,24.73
2018-07-12T14:55:35.490Z,24.57
2018-07-12T14:58:02.878Z,24.57
2018-07-12T15:00:30.209Z,24.51
2018-07-12T15:02:57.645Z,24.26
2018-07-12T15:05:25.211Z,24.04
2018-07-12T15:07:52.775Z,23.84
2018-07-12T15:10:20.682Z,23.68
2018-07-12T15:12:48.654Z,23.79
2018-07-12T15:15:15.988Z,23.76
2018-07-12T15:17:43.480Z,23.83
2018-07-12T15:20:10.887Z,23.81
2018-07-12T15:22:38.294Z,23.56
2018-07-12T15:25:06.314Z,23.20
2018-07-12T15:27:33.684Z,23.05
2018-07-12T15:30:01.004Z,22.88
2018-07-12T15:32:28.385Z,22.86
2018-07-12T15:34:56.659Z,22.71
2018-07-12T15:37:24.216Z,22.44
2018-07-12T15:39:52.232Z,22.47
2018-07-12T15:42:20.668Z,22.39
2018-07-12T15:44:48.606Z,22.30
2018-07-12T15:47:16.698Z,22.26
2018-07-12T15:49:44.135Z,22.05
2018-07-12T15:52:11.425Z,22.12
2018-07-12T15:54:39.698Z,22.13
2018-07-12T15:57:07.106Z,21.96
2018-07-12T15:59:34.500Z,21.80
2018-07-12T16:02:02.431Z,21.72
2018-07-12T16:04:29.828Z,21.60
2018-07-12T16:06:57.851Z,21.41
2018-07-12T16:09:25.224Z,21.41
2018-07-12T16:11:52.627Z,21.41
2018-07-12T16:14:20.517Z,21.57
2018-07-12T16:16:47.917Z,21.59
2018-07-12T16:19:15.272Z,21.50
2018-07-12T16:21:42.681Z,21.53
2018-07-12T16:24:10.747Z,21.60
2018-07-12T16:26:38.049Z,21.71
2018-07-12T16:29:05.566Z,21.69
2018-07-12T16:31:32.891Z,21.57
2018-07-12T16:34:01.270Z,21.59
2018-07-12T16:36:28.642Z,21.64
2018-07-12T16:38:56.014Z,21.61
2018-07-12T16:41:23.343Z,21.57
2018-07-12T16:43:50.714Z,21.46
2018-07-12T16:46:18.091Z,21.35
2018-07-12T16:48:45.885Z,21.43
2018-07-12T16:51:13.225Z,21.39
2018-07-12T16:53:40.758Z,21.44
2018-07-12T16:56:08.297Z,21.47
2018-07-12T16:58:35.886Z,21.50
2018-07-12T17:01:04.438Z,21.54
2018-07-12T17:03:32.246Z,21.49
2018-07-12T17:05:59.668Z,21.41
2018-07-12T17:08:27.123Z,21.43
2018-07-12T17:10:54.703Z,21.44
2018-07-12T17:13:22.070Z,21.38
2018-07-12T17:15:49.418Z,21.32
2018-07-12T17:18:16.811Z,21.38
2018-07-12T17:20:44.166Z,21.38
2018-07-12T17:23:12.265Z,21.32
2018-07-12T17:25:40.288Z,21.35
2018-07-12T17:28:08.689Z,21.29
2018-07-12T17:30:36.006Z,21.30
2018-07-12T17:33:03.528Z,21.13
2018-07-12T17:35:31.125Z,21.09
2018-07-12T17:37:58.482Z,21.13
2018-07-12T17:40:25.868Z,21.00
2018-07-12T17:42:53.255Z,20.99
2018-07-12T17:45:21.416Z,20.97
2018-07-12T17:47:48.813Z,20.96
2018-07-12T17:50:16.212Z,20.97
2018-07-12T17:52:43.487Z,20.88
2018-07-12T17:55:10.873Z,20.81
2018-07-12T17:57:38.182Z,20.65
2018-07-12T18:00:06.221Z,20.61
2018-07-12T18:02:33.915Z,20.62
2018-07-12T18:05:01.821Z,20.47
2018-07-12T18:07:29.378Z,20.36
2018-07-12T18:09:57.716Z,20.37
2018-07-12T18:12:25.444Z,20.28
2018-07-12T18:14:53.396Z,20.27
2018-07-12T18:17:21.251Z,20.20
2018-07-12T18:19:49.239Z,20.12
2018-07-12T18:22:16.958Z,19.96
2018-07-12T18:24:44.552Z,19.84
2018-07-12T18:27:12.076Z,19.77
2018-07-12T18:29:39.500Z,19.73
2018-07-12T18:32:07.616Z,19.68
2018-07-12T18:34:35.244Z,19.66
2018-07-12T18:37:03.419Z,19.63
2018-07-12T18:39:30.887Z,19.59
2018-07-12T18:41:59.191Z,19.57
2018-07-12T18:44:27.222Z,19.58
2018-07-12T18:46:55.016Z,19.55
2018-07-12T18:49:22.491Z,19.53
2018-07-12T18:51:50.370Z,19.53
2018-07-12T18:54:17.810Z,19.52
2018-07-12T18:56:47.847Z,19.45
2018-07-12T18:59:17.565Z,19.44
2018-07-12T19:01:45.074Z,19.41
2018-07-12T19:04:13.263Z,19.39
2018-07-12T19:06:41.189Z,19.33
2018-07-12T19:09:09.410Z,19.34
2018-07-12T19:11:36.861Z,19.32
2018-07-12T19:14:04.333Z,19.28
2018-07-12T19:16:31.743Z,19.18
2018-07-12T19:18:59.180Z,19.16
2018-07-12T19:21:26.839Z,19.09
2018-07-12T19:23:54.322Z,19.04
2018-07-12T19:26:48.573Z,18.95
2018-07-12T19:29:15.962Z,18.95
2018-07-12T19:31:43.436Z,18.97
2018-07-12T19:34:10.877Z,18.95
2018-07-12T19:36:38.888Z,18.93
2018-07-12T19:39:07.936Z,18.92
2018-07-12T19:41:36.261Z,18.89
2018-07-12T19:44:03.699Z,18.86
2018-07-12T19:46:31.955Z,18.76
2018-07-12T19:48:59.466Z,18.72
2018-07-12T19:51:26.859Z,18.70
2018-07-12T19:53:54.219Z,18.64
2018-07-12T19:56:21.613Z,18.61
2018-07-12T19:58:49.172Z,18.57
2018-07-12T20:01:17.165Z,18.49
2018-07-12T20:03:44.661Z,18.42
2018-07-12T20:06:12.046Z,18.39
2018-07-12T20:08:39.417Z,18.34
2018-07-12T20:11:06.778Z,18.25
2018-07-12T20:13:34.180Z,18.24
2018-07-12T20:16:01.475Z,18.21
2018-07-12T20:18:28.723Z,18.18
2018-07-12T20:20:56.006Z,18.17
2018-07-12T20:23:23.235Z,18.12
2018-07-12T20:25:50.484Z,18.11
2018-07-12T20:28:17.748Z,18.12
2018-07-12T20:30:45.019Z,18.14
2018-07-12T20:33:12.264Z,18.19
2018-07-12T20:35:39.550Z,18.23
2018-07-12T20:38:06.838Z,18.20
2018-07-12T20:40:34.119Z,18.24
2018-07-12T20:43:01.448Z,18.23
2018-07-12T20:45:28.796Z,18.29
2018-07-12T20:47:56.027Z,18.33
2018-07-12T20:50:23.294Z,18.37
2018-07-12T20:52:50.922Z,18.39
2018-07-12T20:55:18.215Z,18.38
2018-07-12T20:57:45.426Z,18.42
2018-07-12T21:00:12.685Z,18.50
2018-07-12T21:02:39.990Z,18.58
2018-07-12T21:05:07.265Z,18.59
2018-07-12T21:07:34.526Z,18.63
2018-07-12T21:10:01.726Z,18.64
2018-07-12T21:12:28.979Z,18.64
2018-07-12T21:14:56.231Z,18.57
2018-07-12T21:17:23.485Z,18.55
2018-07-12T21:19:50.698Z,18.54
2018-07-12T21:22:17.966Z,18.52
2018-07-12T21:24:45.185Z,18.48
2018-07-12T21:27:12.462Z,18.43
2018-07-12T21:29:39.735Z,18.40
2018-07-12T21:32:07.017Z,18.37
2018-07-12T21:34:34.269Z,18.34
2018-07-12T21:37:01.543Z,18.28
2018-07-12T21:39:28.780Z,18.25
2018-07-12T21:41:56.031Z,18.26
2018-07-12T21:44:23.324Z,18.20
2018-07-12T21:46:50.577Z,18.23
2018-07-12T21:49:17.828Z,18.27
2018-07-12T21:51:45.195Z,18.25
2018-07-12T21:54:12.354Z,18.28
2018-07-12T21:56:39.609Z,18.28
2018-07-12T21:59:06.835Z,18.23
2018-07-12T22:01:34.110Z,18.16
2018-07-12T22:04:01.364Z,18.13
2018-07-12T22:08:39.425Z,18.08
2018-07-12T22:11:06.703Z,17.92
2018-07-12T22:13:35.219Z,17.87
2018-07-12T22:16:02.529Z,17.74
2018-07-12T22:18:29.792Z,17.61
2018-07-12T22:20:57.033Z,17.50
2018-07-12T22:23:24.341Z,17.36
2018-07-12T22:25:51.578Z,17.22
2018-07-12T22:28:18.860Z,17.11
2018-07-12T22:30:46.102Z,17.04
2018-07-12T22:33:13.352Z,16.98
2018-07-12T22:35:40.621Z,16.94
2018-07-12T22:38:07.914Z,16.83
2018-07-12T22:40:35.148Z,16.76
2018-07-12T22:43:12.697Z,16.77
2018-07-12T22:45:39.928Z,16.77
2018-07-12T22:48:07.291Z,16.75
2018-07-12T22:50:34.494Z,16.76
2018-07-12T22:53:01.752Z,16.71
2018-07-12T22:55:28.979Z,16.70
2018-07-12T22:57:56.235Z,16.70
2018-07-12T23:00:23.448Z,16.73
2018-07-12T23:02:50.703Z,16.75
2018-07-12T23:05:17.969Z,16.74
2018-07-12T23:07:45.232Z,16.68
2018-07-12T23:10:12.565Z,16.68
2018-07-12T23:12:39.824Z,16.61
2018-07-12T23:15:07.064Z,16.60
2018-07-12T23:17:34.382Z,16.57
2018-07-12T23:20:01.599Z,16.52
2018-07-12T23:22:28.849Z,16.54
2018-07-12T23:24:56.077Z,16.58
2018-07-12T23:27:23.294Z,16.60
2018-07-12T23:29:50.558Z,16.59
2018-07-12T23:32:17.793Z,16.59
2018-07-12T23:34:45.058Z,16.57
2018-07-12T23:37:12.294Z,16.53
2018-07-12T23:39:39.569Z,16.48
2018-07-12T23:42:06.821Z,16.44
2018-07-12T23:44:34.123Z,16.35
2018-07-12T23:47:01.367Z,16.21
2018-07-12T23:49:28.649Z,16.11
2018-07-12T23:51:55.917Z,16.06
2018-07-12T23:54:23.141Z,16.01
2018-07-12T23:56:50.387Z,15.96
2018-07-12T23:59:18.026Z,15.90
